YPKG/KGI METAR and TAF weather

Enter ICAO airport designator
Station Type Date Time Source
YPKG METAR 2018/12/12 13:00 UTC NOAA

YPKG 121300Z AUTO 15013KT 9999 // NCD 21/11 Q1018


Station Type Date Time Source
YPKG Decoded METAR 2018/12/12 13:00 UTC NOAA

Kalgoorlie Boulder Amo, Australia (YPKG) 30-47S 121-27E 370M
Dec 12, 2018 - 08:00 AM EST / 2018.12.12 1300 UTC
Wind: from the SSE (150 degrees) at 15 MPH (13 KT):0
Visibility: greater than 7 mile(s):0
Temperature: 69 F (21 C)
Dew Point: 51 F (11 C)
Relative Humidity: 52%
Pressure (altimeter): 30.06 in. Hg (1018 hPa)
ob: YPKG 121300Z AUTO 15013KT 9999 // NCD 21/11 Q1018
cycle: 13

Station Type Date Time Source
YPKG TAF 2018/12/12 12:00 UTC NOAA

TAF YPKG 121107Z 1212/1312 15010KT CAVOK
FM121800 10012KT 9999 BKN018
FM122300 09010KT 9999 SCT022
BECMG 1223/1301 09010KT CAVOK


Example: see airport list